createdAt,value
2022-10-01T00:01:28.009Z,88.17
2022-10-01T00:03:56.166Z,86.20
2022-10-01T00:06:25.022Z,85.29
2022-10-01T00:08:52.816Z,84.38
2022-10-01T00:11:24.334Z,82.80
2022-10-01T00:13:53.898Z,84.99
2022-10-01T00:16:25.494Z,86.48
2022-10-01T00:18:54.215Z,88.04
2022-10-01T00:21:24.973Z,88.18
2022-10-01T00:24:05.773Z,85.74
2022-10-01T00:26:36.077Z,85.63
2022-10-01T00:29:06.273Z,85.68
2022-10-01T00:31:34.849Z,86.35
2022-10-01T00:34:03.541Z,87.73
2022-10-01T00:36:32.613Z,84.79
2022-10-01T00:39:01.089Z,83.77
2022-10-01T00:41:32.806Z,86.24
2022-10-01T00:44:22.298Z,86.98
2022-10-01T00:46:50.653Z,87.58
2022-10-01T00:49:21.433Z,87.22
2022-10-01T00:52:03.262Z,85.31
2022-10-01T00:54:53.393Z,87.31
2022-10-01T00:57:23.333Z,88.68
2022-10-01T00:59:52.504Z,86.44
2022-10-01T01:02:20.629Z,87.71
2022-10-01T01:04:48.561Z,83.92
2022-10-01T01:07:16.911Z,86.99
2022-10-01T01:09:48.842Z,87.10
2022-10-01T01:12:22.733Z,87.72
2022-10-01T01:15:07.574Z,88.04
2022-10-01T01:18:01.065Z,87.86
2022-10-01T01:20:42.994Z,88.02
2022-10-01T01:23:17.316Z,85.77
2022-10-01T01:25:54.111Z,86.26
2022-10-01T01:28:31.848Z,86.96
2022-10-01T01:31:08.438Z,86.57
2022-10-01T01:33:38.176Z,83.80
2022-10-01T01:36:09.513Z,81.33
2022-10-01T01:38:43.524Z,80.30
2022-10-01T01:41:12.034Z,84.05
2022-10-01T01:43:44.702Z,85.87
2022-10-01T01:46:13.829Z,84.39
2022-10-01T01:48:42.332Z,81.80
2022-10-01T01:51:19.072Z,84.55
2022-10-01T01:53:47.202Z,85.66
2022-10-01T01:56:15.061Z,87.11
2022-10-01T01:58:43.531Z,85.94
2022-10-01T02:01:51.341Z,86.72
2022-10-01T02:04:23.783Z,86.47
2022-10-01T02:07:03.922Z,87.26
2022-10-01T02:10:17.195Z,87.55
2022-10-01T02:13:01.715Z,86.09
2022-10-01T02:15:39.077Z,87.95
2022-10-01T02:18:19.331Z,88.58
2022-10-01T02:20:59.221Z,88.36
2022-10-01T02:23:31.084Z,88.53
2022-10-01T02:26:03.802Z,88.84
2022-10-01T02:28:33.132Z,88.32
2022-10-01T02:31:02.367Z,88.44
2022-10-01T02:33:32.331Z,87.78
2022-10-01T02:36:02.292Z,88.52
2022-10-01T02:38:31.361Z,88.50
2022-10-01T02:41:01.259Z,86.67
2022-10-01T02:43:42.778Z,88.07
2022-10-01T02:46:28.594Z,88.55
2022-10-01T02:48:57.384Z,87.60
2022-10-01T02:51:34.301Z,89.02
2022-10-01T02:54:14.824Z,87.02
2022-10-01T02:57:01.372Z,88.64
2022-10-01T02:59:29.185Z,86.11
2022-10-01T03:01:57.618Z,86.63
2022-10-01T03:04:25.572Z,87.79
2022-10-01T03:06:53.462Z,88.24
2022-10-01T03:09:21.563Z,85.33
2022-10-01T03:11:49.455Z,86.80
2022-10-01T03:14:17.292Z,85.19
2022-10-01T03:16:45.452Z,86.28
2022-10-01T03:19:13.302Z,84.67
2022-10-01T03:21:41.152Z,88.24
2022-10-01T03:24:09.669Z,88.40
2022-10-01T03:26:37.703Z,87.25
2022-10-01T03:29:06.481Z,87.05
2022-10-01T03:31:34.930Z,87.92
2022-10-01T03:34:02.841Z,88.03
2022-10-01T03:36:30.631Z,88.16
2022-10-01T03:38:58.874Z,85.17
2022-10-01T03:41:26.770Z,87.34
2022-10-01T03:43:59.665Z,85.59
2022-10-01T03:46:28.846Z,86.19
2022-10-01T03:49:01.122Z,86.79
2022-10-01T03:51:29.692Z,86.87
2022-10-01T03:53:58.386Z,87.94
2022-10-01T03:56:26.593Z,88.73
2022-10-01T03:58:54.761Z,88.18
2022-10-01T04:01:22.663Z,86.94
2022-10-01T04:03:50.920Z,88.21
2022-10-01T04:06:19.141Z,86.39
2022-10-01T04:08:46.988Z,87.69
2022-10-01T04:11:15.184Z,88.43
2022-10-01T04:13:42.934Z,87.71
2022-10-01T04:16:11.259Z,87.93
2022-10-01T04:18:39.562Z,87.13
2022-10-01T04:21:07.433Z,87.44
2022-10-01T04:23:35.482Z,86.40
2022-10-01T04:26:03.957Z,87.35
2022-10-01T04:28:32.038Z,87.47
2022-10-01T04:31:18.950Z,86.61
2022-10-01T04:33:47.081Z,86.62
2022-10-01T04:36:14.942Z,86.54
2022-10-01T04:38:43.123Z,85.86
2022-10-01T04:41:11.303Z,87.57
2022-10-01T04:43:39.054Z,88.72
2022-10-01T04:46:06.916Z,85.72
2022-10-01T04:48:35.083Z,85.37
2022-10-01T04:51:02.982Z,85.40
2022-10-01T04:53:30.824Z,85.20
2022-10-01T04:55:58.952Z,84.97
2022-10-01T04:58:30.743Z,86.13
2022-10-01T05:01:02.481Z,86.53
2022-10-01T05:03:32.304Z,86.37
2022-10-01T05:06:02.138Z,84.88
2022-10-01T05:08:30.282Z,87.51
2022-10-01T05:11:00.582Z,84.25
2022-10-01T05:13:30.557Z,85.47
2022-10-01T05:15:59.246Z,89.98
2022-10-01T05:18:27.245Z,86.66
2022-10-01T05:20:55.415Z,87.87
2022-10-01T05:23:23.194Z,91.35
2022-10-01T05:25:51.128Z,90.06
2022-10-01T05:28:22.428Z,86.57
2022-10-01T05:30:51.369Z,87.37
2022-10-01T05:33:19.652Z,89.14
2022-10-01T05:35:48.132Z,87.85
2022-10-01T05:38:15.895Z,87.43
2022-10-01T05:40:46.183Z,88.63
2022-10-01T05:43:14.221Z,88.55
2022-10-01T05:45:42.147Z,87.41
2022-10-01T05:48:10.463Z,89.68
2022-10-01T05:50:40.601Z,87.90
2022-10-01T05:53:11.024Z,89.37
2022-10-01T05:55:39.673Z,88.66
2022-10-01T05:58:10.678Z,88.09
2022-10-01T06:00:39.817Z,88.96
2022-10-01T06:03:08.952Z,89.87
2022-10-01T06:05:36.974Z,90.07
2022-10-01T06:08:05.842Z,89.25
2022-10-01T06:10:34.093Z,88.68
2022-10-01T06:13:02.467Z,88.18
2022-10-01T06:15:30.543Z,86.77
2022-10-01T06:18:02.794Z,89.07
2022-10-01T06:20:30.683Z,86.80
2022-10-01T06:22:59.044Z,86.75
2022-10-01T06:25:30.875Z,88.55
2022-10-01T06:28:00.130Z,87.89
2022-10-01T06:30:30.685Z,87.29
2022-10-01T06:33:09.813Z,87.44
2022-10-01T06:35:43.882Z,89.06
2022-10-01T06:38:11.982Z,87.54
2022-10-01T06:40:40.691Z,88.64
2022-10-01T06:43:08.882Z,88.18
2022-10-01T06:45:39.171Z,85.30
2022-10-01T06:48:07.743Z,88.60
2022-10-01T06:50:35.659Z,86.08
2022-10-01T06:53:03.431Z,85.19
2022-10-01T06:55:33.782Z,88.89
2022-10-01T06:58:04.551Z,90.61
2022-10-01T07:00:34.514Z,89.28
2022-10-01T07:03:06.723Z,86.91
2022-10-01T07:05:34.852Z,85.67
2022-10-01T07:08:02.733Z,87.78
2022-10-01T07:10:32.314Z,87.67
2022-10-01T07:13:11.445Z,87.35
2022-10-01T07:15:39.931Z,88.53
2022-10-01T07:18:11.713Z,86.91
2022-10-01T07:20:40.719Z,87.92
2022-10-01T07:23:15.119Z,87.85
2022-10-01T07:25:43.999Z,87.42
2022-10-01T07:28:18.647Z,87.75
2022-10-01T07:30:56.660Z,87.53
2022-10-01T07:33:24.774Z,87.78
2022-10-01T07:35:52.639Z,86.95
2022-10-01T07:38:20.605Z,86.60
2022-10-01T07:40:52.971Z,86.07
2022-10-01T07:43:21.541Z,84.15
2022-10-01T07:45:58.359Z,85.93
2022-10-01T07:48:27.706Z,88.21
2022-10-01T07:50:56.714Z,85.42
2022-10-01T07:53:25.659Z,86.56
2022-10-01T07:55:53.943Z,87.79
2022-10-01T07:58:24.426Z,89.63
2022-10-01T08:00:58.687Z,87.86
2022-10-01T08:03:27.095Z,86.61
2022-10-01T08:05:55.116Z,87.55
2022-10-01T08:08:23.214Z,87.60
2022-10-01T08:10:51.414Z,87.53
2022-10-01T08:13:19.315Z,85.46
2022-10-01T08:15:50.721Z,88.42
2022-10-01T08:18:19.582Z,88.41
2022-10-01T08:20:47.853Z,89.39
2022-10-01T08:23:16.883Z,89.43
2022-10-01T08:25:45.983Z,88.05
2022-10-01T08:28:14.480Z,88.53
2022-10-01T08:30:42.913Z,88.47
2022-10-01T08:33:14.794Z,87.53
2022-10-01T08:35:43.888Z,84.06
2022-10-01T08:38:12.984Z,87.37
2022-10-01T08:40:48.804Z,88.39
2022-10-01T08:43:20.145Z,86.94
2022-10-01T08:45:51.786Z,87.03
2022-10-01T08:48:48.533Z,87.14
2022-10-01T08:51:35.632Z,88.96
2022-10-01T08:54:10.853Z,86.81
2022-10-01T08:56:41.874Z,87.87
2022-10-01T08:59:25.329Z,89.00
2022-10-01T09:01:56.867Z,89.24
2022-10-01T09:04:26.562Z,88.85
2022-10-01T09:07:02.973Z,86.66
2022-10-01T09:09:56.437Z,85.48
2022-10-01T09:12:40.323Z,84.56
2022-10-01T09:15:15.357Z,84.66
2022-10-01T09:18:02.177Z,86.70
2022-10-01T09:20:39.702Z,86.81
2022-10-01T09:23:20.943Z,85.44
2022-10-01T09:25:52.792Z,84.54
2022-10-01T09:28:26.947Z,83.68
2022-10-01T09:31:04.273Z,79.92
2022-10-01T09:33:35.955Z,81.22
2022-10-01T09:36:26.645Z,80.36
2022-10-01T09:39:17.694Z,76.48
2022-10-01T09:41:46.453Z,75.48
2022-10-01T09:44:28.145Z,75.55
2022-10-01T09:46:56.353Z,76.86
2022-10-01T09:49:34.364Z,79.62
2022-10-01T09:52:09.003Z,79.36
2022-10-01T09:54:45.097Z,78.58
2022-10-01T09:57:16.612Z,78.25
2022-10-01T09:59:49.454Z,78.85
2022-10-01T10:02:26.171Z,76.93
2022-10-01T10:05:05.522Z,78.62
2022-10-01T10:07:35.202Z,79.44
2022-10-01T10:10:36.195Z,76.36
2022-10-01T10:13:14.055Z,76.44
2022-10-01T10:15:53.865Z,77.19
2022-10-01T10:18:28.835Z,77.74
2022-10-01T10:20:59.722Z,73.57
2022-10-01T10:23:29.563Z,77.01
2022-10-01T10:26:04.196Z,74.08
2022-10-01T10:28:46.406Z,72.43
2022-10-01T10:31:24.410Z,76.36
2022-10-01T10:33:57.646Z,74.68
2022-10-01T10:36:29.196Z,72.86
2022-10-01T10:38:58.386Z,72.55
2022-10-01T10:41:28.346Z,70.55
2022-10-01T10:44:16.472Z,73.07
2022-10-01T10:46:46.457Z,69.92
2022-10-01T10:49:25.423Z,71.79
2022-10-01T10:51:55.200Z,69.60
2022-10-01T10:54:33.042Z,66.40
2022-10-01T10:57:04.083Z,68.12
2022-10-01T10:59:33.645Z,69.55
2022-10-01T11:02:03.802Z,67.29
2022-10-01T11:04:39.246Z,66.97
2022-10-01T11:07:07.866Z,67.68
2022-10-01T11:09:54.835Z,64.37
2022-10-01T11:12:57.705Z,64.03
2022-10-01T11:15:28.932Z,64.25
2022-10-01T11:18:17.442Z,63.77
2022-10-01T11:21:07.063Z,63.61
2022-10-01T11:23:41.301Z,63.57
2022-10-01T11:26:18.361Z,59.12
2022-10-01T11:29:15.334Z,58.48
2022-10-01T11:31:50.596Z,62.13
2022-10-01T11:35:10.096Z,63.86
2022-10-01T11:38:32.283Z,63.22
2022-10-01T11:41:19.302Z,63.39
2022-10-01T11:43:53.612Z,65.37
2022-10-01T11:46:53.654Z,63.40
2022-10-01T11:49:41.992Z,62.95
2022-10-01T11:52:44.123Z,61.24
2022-10-01T11:55:39.283Z,63.46
2022-10-01T11:58:33.464Z,63.41
2022-10-01T12:01:16.555Z,62.47
2022-10-01T12:04:07.684Z,60.62
2022-10-01T12:07:03.258Z,57.94
2022-10-01T12:09:43.574Z,59.52
2022-10-01T12:12:17.643Z,62.04
2022-10-01T12:15:06.921Z,61.11
2022-10-01T12:17:47.290Z,63.85
2022-10-01T12:20:24.433Z,62.74
2022-10-01T12:22:53.513Z,68.51
2022-10-01T12:25:27.155Z,66.47
2022-10-01T12:28:28.903Z,67.04
2022-10-01T12:31:27.896Z,66.78
2022-10-01T12:33:55.714Z,66.84
2022-10-01T12:36:23.753Z,67.95
2022-10-01T12:39:01.093Z,68.86
2022-10-01T12:41:43.383Z,69.25
2022-10-01T12:44:39.300Z,69.39
2022-10-01T12:47:15.162Z,69.95
2022-10-01T12:50:04.612Z,69.88
2022-10-01T12:52:55.335Z,68.00
2022-10-01T12:55:41.688Z,68.11
2022-10-01T12:58:30.643Z,69.19
2022-10-01T13:01:22.481Z,69.22
2022-10-01T13:04:12.585Z,65.44
2022-10-01T13:07:01.471Z,65.45
2022-10-01T13:09:29.893Z,64.22
2022-10-01T13:12:15.851Z,63.26
2022-10-01T13:14:44.924Z,64.52
2022-10-01T13:17:22.921Z,65.16
2022-10-01T13:20:15.801Z,64.99
2022-10-01T13:22:47.847Z,64.12
2022-10-01T13:25:37.724Z,66.49
2022-10-01T13:28:23.896Z,64.89
2022-10-01T13:31:02.803Z,66.40
2022-10-01T13:33:38.302Z,67.79
2022-10-01T13:36:07.914Z,68.33
2022-10-01T13:38:38.984Z,69.16
2022-10-01T13:41:28.983Z,72.81
2022-10-01T13:44:09.312Z,74.92
2022-10-01T13:46:52.016Z,76.71
2022-10-01T13:49:29.270Z,75.30
2022-10-01T13:51:58.383Z,76.82
2022-10-01T13:54:30.463Z,79.30
2022-10-01T13:57:30.263Z,78.27
2022-10-01T14:00:02.401Z,78.59
2022-10-01T14:02:38.712Z,78.81
2022-10-01T14:05:30.794Z,78.61
2022-10-01T14:08:28.363Z,79.74
2022-10-01T14:11:30.177Z,76.17
2022-10-01T14:14:23.079Z,77.67
2022-10-01T14:16:51.336Z,78.36
2022-10-01T14:19:21.233Z,78.93
2022-10-01T14:22:12.756Z,80.00
2022-10-01T14:25:03.282Z,80.37
2022-10-01T14:27:46.301Z,79.92
2022-10-01T14:30:19.083Z,79.50
2022-10-01T14:33:06.021Z,79.40
2022-10-01T14:35:41.542Z,80.76
2022-10-01T14:38:17.162Z,81.54
2022-10-01T14:40:47.956Z,80.65
2022-10-01T14:43:24.580Z,80.25
2022-10-01T14:45:57.134Z,80.53
2022-10-01T14:48:33.975Z,79.91
2022-10-01T14:51:05.055Z,79.60
2022-10-01T14:53:36.546Z,80.31
2022-10-01T14:56:07.450Z,80.93
2022-10-01T14:58:43.866Z,80.73
2022-10-01T15:01:21.745Z,81.33
2022-10-01T15:03:50.749Z,80.95
2022-10-01T15:06:24.203Z,83.94
2022-10-01T15:08:54.940Z,82.54
2022-10-01T15:11:25.361Z,81.90
2022-10-01T15:14:08.545Z,80.67
2022-10-01T15:16:37.612Z,80.15
2022-10-01T15:19:14.095Z,80.10
2022-10-01T15:21:47.275Z,81.16
2022-10-01T15:24:44.583Z,81.32
2022-10-01T15:27:14.815Z,79.83
2022-10-01T15:29:43.294Z,81.73
2022-10-01T15:32:16.098Z,83.02
2022-10-01T15:34:49.192Z,81.28
2022-10-01T15:37:22.296Z,80.92
2022-10-01T15:39:52.009Z,81.91
2022-10-01T15:42:25.863Z,83.38
2022-10-01T15:45:09.372Z,81.59
2022-10-01T15:47:49.605Z,82.65
2022-10-01T15:50:21.073Z,80.10
2022-10-01T15:52:53.455Z,82.17
2022-10-01T15:55:29.225Z,80.81
2022-10-01T15:57:58.316Z,81.52
2022-10-01T16:00:29.273Z,81.14
2022-10-01T16:02:58.407Z,80.91
2022-10-01T16:05:38.333Z,79.31
2022-10-01T16:08:06.757Z,79.42
2022-10-01T16:10:40.993Z,81.14
2022-10-01T16:13:32.167Z,81.71
2022-10-01T16:16:20.902Z,80.47
2022-10-01T16:18:54.262Z,82.29
2022-10-01T16:21:22.475Z,82.18
2022-10-01T16:23:53.400Z,81.97
2022-10-01T16:26:30.422Z,80.39
2022-10-01T16:29:02.081Z,80.82
2022-10-01T16:31:30.773Z,80.15
2022-10-01T16:33:59.091Z,81.88
2022-10-01T16:36:27.728Z,79.38
2022-10-01T16:38:57.649Z,78.35
2022-10-01T16:41:27.043Z,79.40
2022-10-01T16:43:56.433Z,80.66
2022-10-01T16:46:24.674Z,79.18
2022-10-01T16:48:52.904Z,78.15
2022-10-01T16:51:22.161Z,78.11
2022-10-01T16:53:50.396Z,79.49
2022-10-01T16:56:19.859Z,80.62
2022-10-01T16:58:50.372Z,79.02
2022-10-01T17:01:18.763Z,77.91
2022-10-01T17:03:46.823Z,76.34
2022-10-01T17:06:14.665Z,75.83
2022-10-01T17:08:43.290Z,76.62
2022-10-01T17:11:12.782Z,76.47
2022-10-01T17:13:40.811Z,76.35
2022-10-01T17:16:09.245Z,75.69
2022-10-01T17:18:37.329Z,75.54
2022-10-01T17:21:05.994Z,75.55
2022-10-01T17:23:35.853Z,75.92
2022-10-01T17:26:07.951Z,77.19
2022-10-01T17:28:36.264Z,76.07
2022-10-01T17:31:07.394Z,77.14
2022-10-01T17:33:35.443Z,75.68
2022-10-01T17:36:07.223Z,76.67
2022-10-01T17:38:35.305Z,76.07
2022-10-01T17:41:03.605Z,76.19
2022-10-01T17:43:31.491Z,77.65
2022-10-01T17:46:01.497Z,77.76
2022-10-01T17:48:30.370Z,79.03
2022-10-01T17:51:03.792Z,78.84
2022-10-01T17:53:39.651Z,78.26
2022-10-01T17:56:15.135Z,76.65
2022-10-01T17:58:45.558Z,76.77
2022-10-01T18:01:20.127Z,75.25
2022-10-01T18:03:54.655Z,76.19
2022-10-01T18:06:23.734Z,77.68
2022-10-01T18:08:55.666Z,75.77
2022-10-01T18:11:25.997Z,75.19
2022-10-01T18:13:54.205Z,76.31
2022-10-01T18:16:22.670Z,75.82
2022-10-01T18:21:51.310Z,75.16
2022-10-01T18:24:19.152Z,76.14
2022-10-01T18:26:47.184Z,75.94
2022-10-01T18:29:20.797Z,75.90
2022-10-01T18:31:56.341Z,74.70
2022-10-01T18:34:49.906Z,74.16
2022-10-01T18:37:41.633Z,75.29
2022-10-01T18:40:17.083Z,74.30
2022-10-01T18:42:46.563Z,74.00
2022-10-01T18:45:56.972Z,74.00
2022-10-01T18:49:02.839Z,73.27
2022-10-01T18:51:51.341Z,72.48
2022-10-01T18:54:58.988Z,70.99
2022-10-01T18:57:34.492Z,70.77
2022-10-01T19:00:12.515Z,70.54
2022-10-01T19:03:25.392Z,69.81
2022-10-01T19:06:04.591Z,70.23
2022-10-01T19:08:54.706Z,71.69
2022-10-01T19:11:44.604Z,70.97
2022-10-01T19:14:57.503Z,71.42
2022-10-01T19:17:31.901Z,71.04
2022-10-01T19:20:33.499Z,69.99
2022-10-01T19:23:07.412Z,71.27
2022-10-01T19:25:46.372Z,70.64
2022-10-01T19:28:35.661Z,70.83
2022-10-01T19:31:06.791Z,70.89
2022-10-01T19:33:39.075Z,71.45
2022-10-01T19:36:17.062Z,70.77
2022-10-01T19:38:46.753Z,71.10
2022-10-01T19:41:21.203Z,72.26
2022-10-01T19:43:58.015Z,71.56
2022-10-01T19:46:47.515Z,71.60
2022-10-01T19:49:22.206Z,71.53
2022-10-01T19:52:01.596Z,72.96
2022-10-01T19:54:35.144Z,72.87
2022-10-01T19:57:14.372Z,73.36
2022-10-01T19:59:42.276Z,73.29
2022-10-01T20:02:16.513Z,71.73
2022-10-01T20:05:14.142Z,71.73
2022-10-01T20:08:05.044Z,71.01
2022-10-01T20:10:42.241Z,72.95
2022-10-01T20:13:15.934Z,73.16
2022-10-01T20:15:59.156Z,72.30
2022-10-01T20:19:05.325Z,71.43
2022-10-01T20:21:44.954Z,71.83
2022-10-01T20:24:29.057Z,71.67
2022-10-01T20:27:09.441Z,72.01
2022-10-01T20:29:54.755Z,71.33
2022-10-01T20:32:51.027Z,71.86
2022-10-01T20:35:30.374Z,71.50
2022-10-01T20:38:04.450Z,69.56
2022-10-01T20:40:49.861Z,71.44
2022-10-01T20:43:33.612Z,71.11
2022-10-01T20:46:07.116Z,70.46
2022-10-01T20:48:43.064Z,71.02
2022-10-01T20:51:16.502Z,70.45
2022-10-01T20:53:52.332Z,70.54
2022-10-01T20:56:39.962Z,69.42
2022-10-01T20:59:21.114Z,70.68
2022-10-01T21:02:26.672Z,71.10
2022-10-01T21:05:24.086Z,70.53
2022-10-01T21:07:59.173Z,69.66
2022-10-01T21:10:42.657Z,70.42
2022-10-01T21:13:31.571Z,70.03
2022-10-01T21:16:37.882Z,69.71
2022-10-01T21:19:40.513Z,68.79
2022-10-01T21:22:31.312Z,69.06
2022-10-01T21:25:05.210Z,68.53
2022-10-01T21:28:01.690Z,67.79
2022-10-01T21:30:49.184Z,68.62
2022-10-01T21:33:33.147Z,69.36
2022-10-01T21:36:03.425Z,68.50
2022-10-01T21:38:45.743Z,69.01
2022-10-01T21:41:23.302Z,70.06
2022-10-01T21:44:33.271Z,71.00
2022-10-01T21:47:22.876Z,70.25
2022-10-01T21:50:16.011Z,70.94
2022-10-01T21:53:42.332Z,70.57
2022-10-01T21:56:38.705Z,71.22
2022-10-01T21:59:40.504Z,71.12
2022-10-01T22:02:35.139Z,71.02
2022-10-01T22:05:29.597Z,71.12
2022-10-01T22:08:18.153Z,70.13
2022-10-01T22:10:50.362Z,70.50
2022-10-01T22:13:24.748Z,71.88
2022-10-01T22:15:56.843Z,71.57
2022-10-01T22:18:49.339Z,70.65
2022-10-01T22:21:25.503Z,71.12
2022-10-01T22:23:59.752Z,70.96
2022-10-01T22:26:30.381Z,71.73
2022-10-01T22:28:59.161Z,71.27
2022-10-01T22:31:31.198Z,72.00
2022-10-01T22:34:07.925Z,71.16
2022-10-01T22:36:53.289Z,72.53
2022-10-01T22:39:26.420Z,72.15
2022-10-01T22:42:14.432Z,71.41
2022-10-01T22:44:42.601Z,71.14
2022-10-01T22:47:22.770Z,71.30
2022-10-01T22:50:13.190Z,70.99
2022-10-01T22:52:49.289Z,71.18
2022-10-01T22:55:34.402Z,70.98
2022-10-01T22:58:22.352Z,71.80
2022-10-01T23:00:50.082Z,72.35
2022-10-01T23:03:18.168Z,71.95
2022-10-01T23:06:04.024Z,70.69
2022-10-01T23:08:54.041Z,72.05
2022-10-01T23:11:57.719Z,73.35
2022-10-01T23:14:25.901Z,72.69
2022-10-01T23:17:05.922Z,72.53
2022-10-01T23:19:49.303Z,73.21
2022-10-01T23:23:01.404Z,73.85
2022-10-01T23:26:00.215Z,75.64
2022-10-01T23:28:30.948Z,74.66
2022-10-01T23:31:10.916Z,73.27
2022-10-01T23:34:04.891Z,72.64
2022-10-01T23:36:43.262Z,73.35
2022-10-01T23:39:23.123Z,73.44
2022-10-01T23:41:58.874Z,72.66
2022-10-01T23:44:40.602Z,72.80
2022-10-01T23:47:14.312Z,72.29
2022-10-01T23:49:47.901Z,71.99
2022-10-01T23:52:21.943Z,73.18
2022-10-01T23:54:56.842Z,73.89
2022-10-01T23:57:37.693Z,72.49
